createdAt,value
2023-03-01T00:04:09.944Z,28.17
2023-03-01T00:09:14.139Z,29.00
2023-03-01T00:14:17.334Z,26.05
2023-03-01T00:19:22.911Z,28.00
2023-03-01T00:24:27.128Z,29.75
2023-03-01T00:29:30.108Z,25.55
2023-03-01T00:34:33.016Z,24.40
2023-03-01T00:39:37.549Z,24.95
2023-03-01T00:44:40.328Z,25.02
2023-03-01T00:49:43.449Z,28.45
2023-03-01T00:54:47.615Z,24.77
2023-03-01T00:59:50.507Z,27.73
2023-03-01T01:04:54.602Z,24.20
2023-03-01T01:09:58.900Z,28.85
2023-03-01T01:15:01.959Z,30.90
2023-03-01T01:20:05.377Z,23.13
2023-03-01T01:25:10.662Z,28.75
2023-03-01T01:30:14.761Z,31.25
2023-03-01T01:35:17.800Z,26.25
2023-03-01T01:40:22.159Z,27.92
2023-03-01T01:45:35.279Z,24.02
2023-03-01T01:50:42.565Z,29.45
2023-03-01T01:55:49.653Z,24.60
2023-03-01T02:00:52.402Z,27.08
2023-03-01T02:06:01.847Z,33.20
2023-03-01T02:11:06.175Z,26.77
2023-03-01T02:16:13.392Z,30.60
2023-03-01T02:21:37.784Z,37.15
2023-03-01T02:26:47.505Z,30.38
2023-03-01T02:31:54.392Z,27.38
2023-03-01T02:42:03.405Z,29.25
2023-03-01T02:47:08.032Z,28.88
2023-03-01T02:52:45.195Z,32.20
2023-03-01T02:57:51.644Z,32.22
2023-03-01T03:02:57.892Z,36.40
2023-03-01T03:08:02.694Z,30.88
2023-03-01T03:13:11.188Z,38.47
2023-03-01T03:18:17.127Z,31.85
2023-03-01T03:23:20.278Z,30.40
2023-03-01T03:28:23.361Z,29.58
2023-03-01T03:33:27.538Z,35.00
2023-03-01T03:38:30.389Z,34.92
2023-03-01T03:43:34.819Z,34.55
2023-03-01T03:48:41.008Z,31.92
2023-03-01T03:53:44.944Z,34.60
2023-03-01T03:58:47.824Z,32.45
2023-03-01T04:03:55.345Z,32.40
2023-03-01T04:08:59.186Z,37.35
2023-03-01T04:14:01.993Z,39.78
2023-03-01T04:19:07.309Z,44.85
2023-03-01T04:24:10.570Z,47.22
2023-03-01T04:29:13.554Z,46.85
2023-03-01T04:34:18.064Z,39.08
2023-03-01T04:39:20.934Z,38.88
2023-03-01T04:44:23.846Z,41.17
2023-03-01T04:49:28.412Z,40.78
2023-03-01T04:54:31.852Z,37.80
2023-03-01T04:59:34.759Z,38.13
2023-03-01T05:04:39.054Z,36.40
2023-03-01T05:09:41.885Z,38.63
2023-03-01T05:14:44.764Z,34.22
2023-03-01T05:19:48.987Z,46.45
2023-03-01T05:24:51.788Z,50.13
2023-03-01T05:29:55.096Z,40.65
2023-03-01T05:34:59.310Z,42.47
2023-03-01T05:40:03.039Z,37.35
2023-03-01T05:45:10.574Z,41.08
2023-03-01T05:50:19.887Z,45.58
2023-03-01T05:55:24.056Z,37.65
2023-03-01T06:00:28.879Z,38.08
2023-03-01T06:05:33.808Z,36.92
2023-03-01T06:10:36.739Z,34.65
2023-03-01T06:15:40.315Z,34.13
2023-03-01T06:20:44.569Z,35.17
2023-03-01T06:25:47.606Z,40.65
2023-03-01T06:30:52.694Z,44.08
2023-03-01T06:35:58.319Z,44.92
2023-03-01T06:41:02.142Z,38.88
2023-03-01T06:46:09.029Z,37.10
2023-03-01T06:51:13.304Z,36.92
2023-03-01T06:56:16.231Z,33.50
2023-03-01T07:01:21.426Z,37.80
2023-03-01T07:06:25.917Z,54.20
2023-03-01T07:11:29.092Z,50.08
2023-03-01T07:16:32.435Z,39.67
2023-03-01T07:21:36.980Z,39.17
2023-03-01T07:26:40.013Z,47.00
2023-03-01T07:31:42.828Z,39.28
2023-03-01T07:36:47.115Z,39.95
2023-03-01T07:41:49.936Z,39.00
2023-03-01T07:46:59.062Z,41.00
2023-03-01T07:52:07.196Z,38.17
2023-03-01T07:57:10.406Z,41.15
2023-03-01T08:02:14.160Z,35.13
2023-03-01T08:07:18.395Z,41.53
2023-03-01T08:12:21.152Z,45.13
2023-03-01T08:17:24.126Z,37.40
2023-03-01T08:22:28.384Z,40.17
2023-03-01T08:27:31.251Z,38.55
2023-03-01T08:32:38.189Z,37.65
2023-03-01T08:37:42.516Z,35.97
2023-03-01T08:42:46.180Z,38.70
2023-03-01T08:47:49.921Z,34.58
2023-03-01T08:52:54.048Z,32.17
2023-03-01T08:57:59.852Z,30.10
2023-03-01T09:03:02.585Z,38.42
2023-03-01T09:08:09.271Z,31.70
2023-03-01T09:13:12.117Z,35.22
2023-03-01T09:18:14.942Z,36.70
2023-03-01T09:23:19.127Z,34.38
2023-03-01T09:28:29.730Z,25.92
2023-03-01T09:33:34.874Z,37.53
2023-03-01T09:38:39.395Z,37.72
2023-03-01T09:43:46.784Z,27.33
2023-03-01T09:48:54.524Z,25.58
2023-03-01T09:54:01.793Z,26.98
2023-03-01T09:59:17.286Z,33.88
2023-03-01T10:04:30.663Z,31.90
2023-03-01T10:09:37.580Z,30.85
2023-03-01T10:14:50.799Z,27.60
2023-03-01T10:19:53.880Z,20.38
2023-03-01T10:25:00.605Z,32.45
2023-03-01T10:30:12.256Z,43.60
2023-03-01T10:35:20.821Z,46.30
2023-03-01T10:40:26.305Z,39.22
2023-03-01T10:45:35.709Z,25.52
2023-03-01T10:50:42.418Z,31.60
2023-03-01T10:55:48.400Z,36.30
2023-03-01T11:00:53.728Z,28.63
2023-03-01T11:06:06.269Z,23.75
2023-03-01T11:11:28.734Z,31.80
2023-03-01T11:16:36.033Z,26.70
2023-03-01T11:26:49.650Z,26.15
2023-03-01T11:31:57.813Z,25.33
2023-03-01T11:37:04.105Z,26.17
2023-03-01T11:42:19.293Z,26.70
2023-03-01T11:47:49.962Z,22.70
2023-03-01T11:53:15.244Z,23.25
2023-03-01T11:58:34.277Z,23.02
2023-03-01T12:03:54.402Z,80.57
2023-03-01T12:09:11.488Z,18.35
2023-03-01T12:14:39.788Z,17.25
2023-03-01T12:19:59.288Z,29.58
2023-03-01T12:25:32.121Z,30.00
2023-03-01T12:30:53.467Z,17.15
2023-03-01T12:36:32.899Z,30.33
2023-03-01T12:41:49.385Z,14.85
2023-03-01T12:47:09.849Z,19.70
2023-03-01T12:52:18.948Z,15.70
2023-03-01T12:57:37.830Z,21.17
2023-03-01T13:02:51.048Z,14.23
2023-03-01T13:08:03.420Z,12.30
2023-03-01T13:13:20.382Z,12.48
2023-03-01T13:23:38.400Z,42.95
2023-03-01T13:28:53.827Z,17.10
2023-03-01T13:33:59.440Z,24.63
2023-03-01T13:39:03.604Z,15.57
2023-03-01T13:44:14.849Z,18.67
2023-03-01T13:49:22.101Z,17.08
2023-03-01T13:59:32.495Z,18.60
2023-03-01T14:04:37.131Z,13.63
2023-03-01T14:09:44.949Z,14.98
2023-03-01T14:14:54.345Z,16.08
2023-03-01T14:20:01.111Z,17.30
2023-03-01T14:25:08.485Z,18.58
2023-03-01T14:30:16.618Z,20.65
2023-03-01T14:35:24.661Z,17.80
2023-03-01T14:40:30.761Z,19.67
2023-03-01T14:45:33.654Z,22.38
2023-03-01T14:50:43.712Z,15.05
2023-03-01T14:55:48.749Z,22.83
2023-03-01T15:00:56.492Z,17.08
2023-03-01T15:06:02.433Z,20.17
2023-03-01T15:11:09.922Z,16.75
2023-03-01T15:16:14.424Z,20.10
2023-03-01T15:21:23.920Z,17.17
2023-03-01T15:26:32.338Z,16.25
2023-03-01T15:31:39.555Z,16.98
2023-03-01T15:36:51.065Z,24.23
2023-03-01T15:41:54.513Z,14.93
2023-03-01T15:46:57.542Z,19.67
2023-03-01T15:52:02.142Z,15.55
2023-03-01T15:57:05.050Z,22.88
2023-03-01T16:02:11.291Z,20.58
2023-03-01T16:07:15.589Z,20.13
2023-03-01T16:12:21.563Z,26.77
2023-03-01T16:17:24.458Z,19.35
2023-03-01T16:22:29.350Z,25.02
2023-03-01T16:27:32.230Z,24.98
2023-03-01T16:32:35.271Z,25.48
2023-03-01T16:37:42.720Z,23.92
2023-03-01T16:42:47.536Z,15.35
2023-03-01T16:47:50.462Z,26.92
2023-03-01T16:52:54.740Z,29.98
2023-03-01T16:57:57.558Z,21.85
2023-03-01T17:03:02.663Z,29.52
2023-03-01T17:08:07.539Z,22.83
2023-03-01T17:13:11.285Z,14.50
2023-03-01T17:18:14.336Z,15.32
2023-03-01T17:23:18.551Z,25.70
2023-03-01T17:28:21.432Z,36.08
2023-03-01T17:33:25.203Z,40.72
2023-03-01T17:38:29.501Z,35.55
2023-03-01T17:43:34.342Z,18.67
2023-03-01T17:48:37.712Z,28.70
2023-03-01T17:53:43.261Z,22.25
2023-03-01T17:58:46.783Z,33.75
2023-03-01T18:03:52.272Z,18.00
2023-03-01T18:08:56.977Z,30.48
2023-03-01T18:14:00.003Z,23.05
2023-03-01T18:19:03.514Z,21.50
2023-03-01T18:24:08.721Z,22.02
2023-03-01T18:29:11.515Z,20.95
2023-03-01T18:34:18.017Z,40.60
2023-03-01T18:39:22.850Z,19.35
2023-03-01T18:44:25.640Z,21.25
2023-03-01T18:49:28.565Z,19.25
2023-03-01T18:54:35.278Z,20.60
2023-03-01T18:59:38.431Z,20.75
2023-03-01T19:04:41.200Z,16.52
2023-03-01T19:09:45.470Z,19.63
2023-03-01T19:14:48.452Z,20.80
2023-03-01T19:19:51.357Z,17.58
2023-03-01T19:24:55.671Z,18.15
2023-03-01T19:29:58.507Z,17.00
2023-03-01T19:35:01.645Z,20.45
2023-03-01T19:40:07.139Z,23.20
2023-03-01T19:45:11.697Z,21.17
2023-03-01T19:50:16.296Z,21.05
2023-03-01T19:55:20.410Z,17.10
2023-03-01T20:00:25.312Z,18.70
2023-03-01T20:05:28.711Z,18.15
2023-03-01T20:10:35.876Z,24.58
2023-03-01T20:20:44.232Z,15.90
2023-03-01T20:25:49.561Z,20.42
2023-03-01T20:30:52.730Z,23.25
2023-03-01T20:35:56.354Z,20.35
2023-03-01T20:41:02.490Z,17.88
2023-03-01T20:46:06.533Z,17.98
2023-03-01T20:51:10.477Z,20.20
2023-03-01T20:56:16.328Z,16.55
2023-03-01T21:01:37.928Z,25.85
2023-03-01T21:06:42.885Z,19.17
2023-03-01T21:11:47.003Z,20.92
2023-03-01T21:16:50.328Z,19.83
2023-03-01T21:21:53.548Z,20.90
2023-03-01T21:26:57.687Z,19.20
2023-03-01T21:32:03.806Z,16.08
2023-03-01T21:37:09.129Z,22.57
2023-03-01T21:42:13.239Z,23.23
2023-03-01T21:47:16.142Z,19.20
2023-03-01T21:52:19.016Z,20.70
2023-03-01T21:57:23.186Z,18.63
2023-03-01T22:02:25.928Z,23.65
2023-03-01T22:07:28.704Z,25.73
2023-03-01T22:12:32.894Z,19.42
2023-03-01T22:17:36.636Z,16.88
2023-03-01T22:22:39.519Z,20.00
2023-03-01T22:27:43.668Z,19.02
2023-03-01T22:32:46.797Z,18.30
2023-03-01T22:37:49.692Z,21.92
2023-03-01T22:42:54.487Z,22.27
2023-03-01T22:47:58.209Z,23.92
2023-03-01T22:53:01.215Z,26.80
2023-03-01T22:58:06.274Z,24.70
2023-03-01T23:03:09.463Z,18.55
2023-03-01T23:08:12.360Z,19.40
2023-03-01T23:13:16.983Z,21.45
2023-03-01T23:18:19.815Z,23.65
2023-03-01T23:23:22.703Z,22.02
2023-03-01T23:28:27.467Z,23.90
2023-03-01T23:33:37.690Z,21.63
2023-03-01T23:38:40.638Z,19.52
2023-03-01T23:43:46.723Z,27.77
2023-03-01T23:48:49.663Z,22.33
2023-03-01T23:53:57.624Z,23.20
2023-03-01T23:59:04.922Z,34.83
